sensor_id;sensor_type;location;lat;lon;timestamp;P1;durP1;ratioP1;P2;durP2;ratioP2
76550;SDS011;68768;53.156;18.164;2024-02-15T00:01:35;37.30;;;14.20;;
76550;SDS011;68768;53.156;18.164;2024-02-15T00:04:02;32.00;;;14.40;;
76550;SDS011;68768;53.156;18.164;2024-02-15T00:06:29;29.00;;;14.30;;
76550;SDS011;68768;53.156;18.164;2024-02-15T00:08:56;33.80;;;15.90;;
76550;SDS011;68768;53.156;18.164;2024-02-15T00:11:23;34.30;;;15.20;;
76550;SDS011;68768;53.156;18.164;2024-02-15T00:13:50;31.00;;;14.30;;
76550;SDS011;68768;53.156;18.164;2024-02-15T00:16:17;33.30;;;15.10;;
76550;SDS011;68768;53.156;18.164;2024-02-15T00:18:44;34.50;;;15.70;;
76550;SDS011;68768;53.156;18.164;2024-02-15T00:21:11;34.50;;;15.30;;
76550;SDS011;68768;53.156;18.164;2024-02-15T00:23:40;34.00;;;14.80;;
76550;SDS011;68768;53.156;18.164;2024-02-15T00:26:08;29.70;;;13.80;;
76550;SDS011;68768;53.156;18.164;2024-02-15T00:28:36;32.70;;;14.60;;
76550;SDS011;68768;53.156;18.164;2024-02-15T00:31:03;35.10;;;15.10;;
76550;SDS011;68768;53.156;18.164;2024-02-15T00:33:30;38.30;;;15.80;;
76550;SDS011;68768;53.156;18.164;2024-02-15T00:35:58;35.00;;;16.30;;
76550;SDS011;68768;53.156;18.164;2024-02-15T00:38:25;33.10;;;15.50;;
76550;SDS011;68768;53.156;18.164;2024-02-15T00:40:52;38.10;;;15.80;;
76550;SDS011;68768;53.156;18.164;2024-02-15T00:43:19;34.40;;;15.30;;
76550;SDS011;68768;53.156;18.164;2024-02-15T00:45:46;34.60;;;14.90;;
76550;SDS011;68768;53.156;18.164;2024-02-15T00:48:13;34.40;;;14.80;;
76550;SDS011;68768;53.156;18.164;2024-02-15T00:50:40;36.80;;;15.50;;
76550;SDS011;68768;53.156;18.164;2024-02-15T00:53:07;35.60;;;14.00;;
76550;SDS011;68768;53.156;18.164;2024-02-15T00:55:34;35.70;;;15.40;;
76550;SDS011;68768;53.156;18.164;2024-02-15T00:58:01;38.30;;;16.50;;
76550;SDS011;68768;53.156;18.164;2024-02-15T01:00:28;33.40;;;15.10;;
76550;SDS011;68768;53.156;18.164;2024-02-15T01:02:55;32.10;;;15.20;;
76550;SDS011;68768;53.156;18.164;2024-02-15T01:05:22;36.70;;;15.80;;
76550;SDS011;68768;53.156;18.164;2024-02-15T01:07:50;32.70;;;15.70;;
76550;SDS011;68768;53.156;18.164;2024-02-15T01:10:18;35.30;;;15.30;;
76550;SDS011;68768;53.156;18.164;2024-02-15T01:12:46;34.60;;;15.30;;
76550;SDS011;68768;53.156;18.164;2024-02-15T01:15:13;35.40;;;16.10;;
76550;SDS011;68768;53.156;18.164;2024-02-15T01:17:40;34.40;;;15.60;;
76550;SDS011;68768;53.156;18.164;2024-02-15T01:20:08;32.00;;;15.10;;
76550;SDS011;68768;53.156;18.164;2024-02-15T01:22:35;34.80;;;15.10;;
76550;SDS011;68768;53.156;18.164;2024-02-15T01:25:03;31.70;;;14.60;;
76550;SDS011;68768;53.156;18.164;2024-02-15T01:27:31;33.40;;;15.30;;
76550;SDS011;68768;53.156;18.164;2024-02-15T01:29:57;35.80;;;15.70;;
76550;SDS011;68768;53.156;18.164;2024-02-15T01:32:24;33.60;;;14.80;;
76550;SDS011;68768;53.156;18.164;2024-02-15T01:34:54;35.10;;;14.80;;
76550;SDS011;68768;53.156;18.164;2024-02-15T01:37:21;32.40;;;14.30;;
76550;SDS011;68768;53.156;18.164;2024-02-15T01:39:48;31.30;;;14.50;;
76550;SDS011;68768;53.156;18.164;2024-02-15T01:42:15;33.10;;;15.30;;
76550;SDS011;68768;53.156;18.164;2024-02-15T01:44:42;31.70;;;14.80;;
76550;SDS011;68768;53.156;18.164;2024-02-15T01:47:10;32.90;;;14.60;;
76550;SDS011;68768;53.156;18.164;2024-02-15T01:49:38;33.30;;;15.50;;
76550;SDS011;68768;53.156;18.164;2024-02-15T01:52:05;34.30;;;15.60;;
76550;SDS011;68768;53.156;18.164;2024-02-15T01:54:35;36.10;;;15.40;;
76550;SDS011;68768;53.156;18.164;2024-02-15T01:57:05;35.90;;;16.00;;
76550;SDS011;68768;53.156;18.164;2024-02-15T01:59:32;32.30;;;14.80;;
76550;SDS011;68768;53.156;18.164;2024-02-15T02:01:59;33.30;;;15.50;;
76550;SDS011;68768;53.156;18.164;2024-02-15T02:04:28;32.70;;;15.10;;
76550;SDS011;68768;53.156;18.164;2024-02-15T02:06:58;37.20;;;16.60;;
76550;SDS011;68768;53.156;18.164;2024-02-15T02:09:25;33.90;;;15.20;;
76550;SDS011;68768;53.156;18.164;2024-02-15T02:11:52;33.00;;;15.20;;
76550;SDS011;68768;53.156;18.164;2024-02-15T02:14:19;29.00;;;14.50;;
76550;SDS011;68768;53.156;18.164;2024-02-15T02:16:47;30.90;;;14.70;;
76550;SDS011;68768;53.156;18.164;2024-02-15T02:19:14;29.50;;;13.90;;
76550;SDS011;68768;53.156;18.164;2024-02-15T02:21:41;33.60;;;14.40;;
76550;SDS011;68768;53.156;18.164;2024-02-15T02:24:14;30.90;;;14.30;;
76550;SDS011;68768;53.156;18.164;2024-02-15T02:26:48;30.40;;;14.00;;
76550;SDS011;68768;53.156;18.164;2024-02-15T02:29:15;29.60;;;14.50;;
76550;SDS011;68768;53.156;18.164;2024-02-15T02:31:43;35.20;;;14.80;;
76550;SDS011;68768;53.156;18.164;2024-02-15T02:34:09;30.00;;;14.30;;
76550;SDS011;68768;53.156;18.164;2024-02-15T02:36:36;30.90;;;13.90;;
76550;SDS011;68768;53.156;18.164;2024-02-15T02:39:04;31.40;;;13.90;;
76550;SDS011;68768;53.156;18.164;2024-02-15T02:41:31;28.60;;;12.80;;
76550;SDS011;68768;53.156;18.164;2024-02-15T02:43:58;31.60;;;14.80;;
76550;SDS011;68768;53.156;18.164;2024-02-15T02:46:25;28.20;;;13.50;;
76550;SDS011;68768;53.156;18.164;2024-02-15T02:48:52;29.10;;;13.60;;
76550;SDS011;68768;53.156;18.164;2024-02-15T02:51:19;27.30;;;13.00;;
76550;SDS011;68768;53.156;18.164;2024-02-15T02:53:46;34.40;;;14.70;;
76550;SDS011;68768;53.156;18.164;2024-02-15T02:56:13;27.80;;;13.60;;
76550;SDS011;68768;53.156;18.164;2024-02-15T02:58:40;29.60;;;13.80;;
76550;SDS011;68768;53.156;18.164;2024-02-15T03:01:09;30.00;;;13.90;;
76550;SDS011;68768;53.156;18.164;2024-02-15T03:03:37;30.60;;;14.80;;
76550;SDS011;68768;53.156;18.164;2024-02-15T03:06:06;30.60;;;14.50;;
76550;SDS011;68768;53.156;18.164;2024-02-15T03:08:33;31.80;;;14.70;;
76550;SDS011;68768;53.156;18.164;2024-02-15T03:11:00;31.10;;;14.10;;
76550;SDS011;68768;53.156;18.164;2024-02-15T03:13:27;29.90;;;14.10;;
76550;SDS011;68768;53.156;18.164;2024-02-15T03:15:54;30.90;;;14.00;;
76550;SDS011;68768;53.156;18.164;2024-02-15T03:18:21;30.70;;;14.00;;
76550;SDS011;68768;53.156;18.164;2024-02-15T03:20:49;29.70;;;14.00;;
76550;SDS011;68768;53.156;18.164;2024-02-15T03:23:16;29.90;;;12.80;;
76550;SDS011;68768;53.156;18.164;2024-02-15T03:25:43;31.00;;;14.00;;
76550;SDS011;68768;53.156;18.164;2024-02-15T03:28:10;28.00;;;14.00;;
76550;SDS011;68768;53.156;18.164;2024-02-15T03:30:37;28.60;;;13.20;;
76550;SDS011;68768;53.156;18.164;2024-02-15T03:33:04;29.40;;;13.50;;
76550;SDS011;68768;53.156;18.164;2024-02-15T03:35:31;25.80;;;13.40;;
76550;SDS011;68768;53.156;18.164;2024-02-15T03:37:58;26.50;;;12.90;;
76550;SDS011;68768;53.156;18.164;2024-02-15T03:40:25;28.70;;;13.00;;
76550;SDS011;68768;53.156;18.164;2024-02-15T03:42:53;26.30;;;12.10;;
76550;SDS011;68768;53.156;18.164;2024-02-15T03:45:20;29.20;;;13.20;;
76550;SDS011;68768;53.156;18.164;2024-02-15T03:47:49;25.70;;;12.30;;
76550;SDS011;68768;53.156;18.164;2024-02-15T03:50:16;26.00;;;12.40;;
76550;SDS011;68768;53.156;18.164;2024-02-15T03:52:43;25.60;;;12.60;;
76550;SDS011;68768;53.156;18.164;2024-02-15T03:55:10;27.70;;;12.60;;
76550;SDS011;68768;53.156;18.164;2024-02-15T03:57:38;25.00;;;11.90;;
76550;SDS011;68768;53.156;18.164;2024-02-15T04:00:10;25.50;;;12.90;;
76550;SDS011;68768;53.156;18.164;2024-02-15T04:02:37;27.50;;;12.50;;
76550;SDS011;68768;53.156;18.164;2024-02-15T04:05:07;26.00;;;12.40;;
76550;SDS011;68768;53.156;18.164;2024-02-15T04:07:35;24.90;;;12.70;;
76550;SDS011;68768;53.156;18.164;2024-02-15T04:10:04;28.00;;;12.60;;
76550;SDS011;68768;53.156;18.164;2024-02-15T04:12:32;24.20;;;12.30;;
76550;SDS011;68768;53.156;18.164;2024-02-15T04:14:59;27.80;;;13.20;;
76550;SDS011;68768;53.156;18.164;2024-02-15T04:17:38;30.40;;;14.30;;
76550;SDS011;68768;53.156;18.164;2024-02-15T04:20:05;30.80;;;15.00;;
76550;SDS011;68768;53.156;18.164;2024-02-15T04:22:33;32.00;;;15.00;;
76550;SDS011;68768;53.156;18.164;2024-02-15T04:25:06;31.60;;;15.00;;
76550;SDS011;68768;53.156;18.164;2024-02-15T04:27:36;34.60;;;16.40;;
76550;SDS011;68768;53.156;18.164;2024-02-15T04:30:03;30.30;;;15.20;;
76550;SDS011;68768;53.156;18.164;2024-02-15T04:32:30;29.00;;;15.40;;
76550;SDS011;68768;53.156;18.164;2024-02-15T04:35:00;29.40;;;15.10;;
76550;SDS011;68768;53.156;18.164;2024-02-15T04:37:27;32.20;;;15.10;;
76550;SDS011;68768;53.156;18.164;2024-02-15T04:39:55;32.80;;;15.10;;
76550;SDS011;68768;53.156;18.164;2024-02-15T04:42:23;33.90;;;14.70;;
76550;SDS011;68768;53.156;18.164;2024-02-15T04:44:53;31.60;;;15.30;;
76550;SDS011;68768;53.156;18.164;2024-02-15T04:47:20;33.80;;;16.10;;
76550;SDS011;68768;53.156;18.164;2024-02-15T04:49:47;32.90;;;15.50;;
76550;SDS011;68768;53.156;18.164;2024-02-15T04:52:14;31.70;;;14.90;;
76550;SDS011;68768;53.156;18.164;2024-02-15T04:54:41;36.20;;;16.50;;
76550;SDS011;68768;53.156;18.164;2024-02-15T04:57:08;32.80;;;15.50;;
76550;SDS011;68768;53.156;18.164;2024-02-15T04:59:38;31.10;;;15.40;;
76550;SDS011;68768;53.156;18.164;2024-02-15T05:02:05;36.00;;;16.30;;
76550;SDS011;68768;53.156;18.164;2024-02-15T05:04:32;32.00;;;15.00;;
76550;SDS011;68768;53.156;18.164;2024-02-15T05:07:02;36.60;;;16.00;;
76550;SDS011;68768;53.156;18.164;2024-02-15T05:09:30;33.00;;;14.90;;
76550;SDS011;68768;53.156;18.164;2024-02-15T05:11:59;39.10;;;15.60;;
76550;SDS011;68768;53.156;18.164;2024-02-15T05:14:26;44.90;;;20.60;;
76550;SDS011;68768;53.156;18.164;2024-02-15T05:16:53;39.40;;;18.40;;
76550;SDS011;68768;53.156;18.164;2024-02-15T05:19:20;31.50;;;15.50;;
76550;SDS011;68768;53.156;18.164;2024-02-15T05:21:47;32.90;;;16.20;;
76550;SDS011;68768;53.156;18.164;2024-02-15T05:24:14;31.20;;;15.80;;
76550;SDS011;68768;53.156;18.164;2024-02-15T05:26:46;33.50;;;15.60;;
76550;SDS011;68768;53.156;18.164;2024-02-15T05:29:13;35.10;;;17.10;;
76550;SDS011;68768;53.156;18.164;2024-02-15T05:31:41;35.00;;;16.40;;
76550;SDS011;68768;53.156;18.164;2024-02-15T05:34:09;36.70;;;16.70;;
76550;SDS011;68768;53.156;18.164;2024-02-15T05:36:38;30.70;;;14.80;;
76550;SDS011;68768;53.156;18.164;2024-02-15T05:39:05;36.20;;;17.60;;
76550;SDS011;68768;53.156;18.164;2024-02-15T05:41:33;36.80;;;16.70;;
76550;SDS011;68768;53.156;18.164;2024-02-15T05:44:01;34.90;;;17.40;;
76550;SDS011;68768;53.156;18.164;2024-02-15T05:46:28;36.80;;;16.10;;
76550;SDS011;68768;53.156;18.164;2024-02-15T05:48:55;33.70;;;17.40;;
76550;SDS011;68768;53.156;18.164;2024-02-15T05:51:22;35.60;;;17.30;;
76550;SDS011;68768;53.156;18.164;2024-02-15T05:53:50;32.90;;;15.40;;
76550;SDS011;68768;53.156;18.164;2024-02-15T05:56:17;35.70;;;18.20;;
76550;SDS011;68768;53.156;18.164;2024-02-15T05:58:44;38.80;;;16.80;;
76550;SDS011;68768;53.156;18.164;2024-02-15T06:01:11;34.90;;;17.60;;
76550;SDS011;68768;53.156;18.164;2024-02-15T06:03:38;34.20;;;16.50;;
76550;SDS011;68768;53.156;18.164;2024-02-15T06:06:07;35.60;;;17.50;;
76550;SDS011;68768;53.156;18.164;2024-02-15T06:08:34;33.80;;;16.50;;
76550;SDS011;68768;53.156;18.164;2024-02-15T06:11:02;40.00;;;18.70;;
76550;SDS011;68768;53.156;18.164;2024-02-15T06:13:30;35.50;;;16.20;;
76550;SDS011;68768;53.156;18.164;2024-02-15T06:15:57;35.50;;;17.00;;
76550;SDS011;68768;53.156;18.164;2024-02-15T06:18:25;32.80;;;16.90;;
76550;SDS011;68768;53.156;18.164;2024-02-15T06:20:55;31.90;;;17.60;;
76550;SDS011;68768;53.156;18.164;2024-02-15T06:23:26;39.20;;;18.10;;
76550;SDS011;68768;53.156;18.164;2024-02-15T06:25:56;37.90;;;17.30;;
76550;SDS011;68768;53.156;18.164;2024-02-15T06:28:29;34.80;;;17.50;;
76550;SDS011;68768;53.156;18.164;2024-02-15T06:31:15;35.40;;;18.10;;
76550;SDS011;68768;53.156;18.164;2024-02-15T06:34:00;39.30;;;17.80;;
76550;SDS011;68768;53.156;18.164;2024-02-15T06:36:47;33.80;;;17.50;;
76550;SDS011;68768;53.156;18.164;2024-02-15T06:39:33;36.00;;;18.80;;
76550;SDS011;68768;53.156;18.164;2024-02-15T06:42:12;42.40;;;19.90;;
76550;SDS011;68768;53.156;18.164;2024-02-15T06:44:45;34.10;;;17.50;;
76550;SDS011;68768;53.156;18.164;2024-02-15T06:47:14;36.10;;;18.60;;
76550;SDS011;68768;53.156;18.164;2024-02-15T06:49:45;34.10;;;17.20;;
76550;SDS011;68768;53.156;18.164;2024-02-15T06:52:12;34.00;;;17.60;;
76550;SDS011;68768;53.156;18.164;2024-02-15T06:54:40;35.20;;;18.40;;
76550;SDS011;68768;53.156;18.164;2024-02-15T06:57:08;32.70;;;18.10;;
76550;SDS011;68768;53.156;18.164;2024-02-15T06:59:35;35.70;;;18.40;;
76550;SDS011;68768;53.156;18.164;2024-02-15T07:02:03;38.50;;;18.30;;
76550;SDS011;68768;53.156;18.164;2024-02-15T07:04:31;31.80;;;16.80;;
76550;SDS011;68768;53.156;18.164;2024-02-15T07:06:59;33.30;;;17.70;;
76550;SDS011;68768;53.156;18.164;2024-02-15T07:09:26;33.60;;;18.40;;
76550;SDS011;68768;53.156;18.164;2024-02-15T07:11:54;37.60;;;19.40;;
76550;SDS011;68768;53.156;18.164;2024-02-15T07:14:21;39.70;;;21.00;;
76550;SDS011;68768;53.156;18.164;2024-02-15T07:16:48;40.20;;;19.70;;
76550;SDS011;68768;53.156;18.164;2024-02-15T07:19:16;36.80;;;19.10;;
76550;SDS011;68768;53.156;18.164;2024-02-15T07:21:45;44.00;;;20.50;;
76550;SDS011;68768;53.156;18.164;2024-02-15T07:24:13;37.50;;;20.30;;
76550;SDS011;68768;53.156;18.164;2024-02-15T07:26:40;39.70;;;19.40;;
76550;SDS011;68768;53.156;18.164;2024-02-15T07:29:07;40.50;;;21.30;;
76550;SDS011;68768;53.156;18.164;2024-02-15T07:31:34;37.80;;;20.60;;
76550;SDS011;68768;53.156;18.164;2024-02-15T07:34:01;36.00;;;18.80;;
76550;SDS011;68768;53.156;18.164;2024-02-15T07:36:29;38.20;;;19.00;;
76550;SDS011;68768;53.156;18.164;2024-02-15T07:38:57;39.40;;;19.50;;
76550;SDS011;68768;53.156;18.164;2024-02-15T07:41:29;40.00;;;21.30;;
76550;SDS011;68768;53.156;18.164;2024-02-15T07:43:57;38.70;;;19.60;;
76550;SDS011;68768;53.156;18.164;2024-02-15T07:46:25;36.70;;;19.40;;
76550;SDS011;68768;53.156;18.164;2024-02-15T07:48:52;34.30;;;18.30;;
76550;SDS011;68768;53.156;18.164;2024-02-15T07:51:20;35.20;;;18.60;;
76550;SDS011;68768;53.156;18.164;2024-02-15T07:53:49;38.50;;;19.60;;
76550;SDS011;68768;53.156;18.164;2024-02-15T07:56:16;35.20;;;18.90;;
76550;SDS011;68768;53.156;18.164;2024-02-15T07:58:44;37.40;;;20.00;;
76550;SDS011;68768;53.156;18.164;2024-02-15T08:01:14;35.60;;;19.80;;
76550;SDS011;68768;53.156;18.164;2024-02-15T08:03:42;36.40;;;20.30;;
76550;SDS011;68768;53.156;18.164;2024-02-15T08:06:13;36.00;;;20.90;;
76550;SDS011;68768;53.156;18.164;2024-02-15T08:08:42;34.40;;;18.80;;
76550;SDS011;68768;53.156;18.164;2024-02-15T08:11:15;39.30;;;21.10;;
76550;SDS011;68768;53.156;18.164;2024-02-15T08:13:46;39.10;;;20.00;;
76550;SDS011;68768;53.156;18.164;2024-02-15T08:16:16;37.00;;;19.50;;
76550;SDS011;68768;53.156;18.164;2024-02-15T08:18:45;37.60;;;20.60;;
76550;SDS011;68768;53.156;18.164;2024-02-15T08:21:15;39.80;;;21.00;;
76550;SDS011;68768;53.156;18.164;2024-02-15T08:23:42;36.20;;;18.90;;
76550;SDS011;68768;53.156;18.164;2024-02-15T08:26:09;40.40;;;20.70;;
76550;SDS011;68768;53.156;18.164;2024-02-15T08:28:39;37.30;;;20.30;;
76550;SDS011;68768;53.156;18.164;2024-02-15T08:31:06;36.20;;;20.30;;
76550;SDS011;68768;53.156;18.164;2024-02-15T08:33:34;41.20;;;21.10;;
76550;SDS011;68768;53.156;18.164;2024-02-15T08:36:02;34.60;;;19.40;;
76550;SDS011;68768;53.156;18.164;2024-02-15T08:38:30;32.30;;;18.90;;
76550;SDS011;68768;53.156;18.164;2024-02-15T08:40:57;42.10;;;19.80;;
76550;SDS011;68768;53.156;18.164;2024-02-15T08:43:24;43.10;;;20.90;;
76550;SDS011;68768;53.156;18.164;2024-02-15T08:45:51;38.70;;;20.10;;
76550;SDS011;68768;53.156;18.164;2024-02-15T08:48:19;38.00;;;19.40;;
76550;SDS011;68768;53.156;18.164;2024-02-15T08:50:49;40.90;;;19.80;;
76550;SDS011;68768;53.156;18.164;2024-02-15T08:53:15;38.90;;;20.80;;
76550;SDS011;68768;53.156;18.164;2024-02-15T08:55:45;42.50;;;21.20;;
76550;SDS011;68768;53.156;18.164;2024-02-15T08:58:12;36.10;;;20.10;;
76550;SDS011;68768;53.156;18.164;2024-02-15T09:00:39;41.70;;;21.10;;
76550;SDS011;68768;53.156;18.164;2024-02-15T09:03:11;44.70;;;20.80;;
76550;SDS011;68768;53.156;18.164;2024-02-15T09:05:41;35.50;;;19.20;;
76550;SDS011;68768;53.156;18.164;2024-02-15T09:08:08;40.50;;;21.60;;
76550;SDS011;68768;53.156;18.164;2024-02-15T09:10:36;34.30;;;19.00;;
76550;SDS011;68768;53.156;18.164;2024-02-15T09:13:03;40.80;;;21.00;;
76550;SDS011;68768;53.156;18.164;2024-02-15T09:15:30;42.00;;;20.10;;
76550;SDS011;68768;53.156;18.164;2024-02-15T09:17:57;35.90;;;18.70;;
76550;SDS011;68768;53.156;18.164;2024-02-15T09:20:24;42.20;;;21.30;;
76550;SDS011;68768;53.156;18.164;2024-02-15T09:22:54;43.50;;;20.70;;
76550;SDS011;68768;53.156;18.164;2024-02-15T09:25:23;44.40;;;22.50;;
76550;SDS011;68768;53.156;18.164;2024-02-15T09:27:51;37.80;;;20.40;;
76550;SDS011;68768;53.156;18.164;2024-02-15T09:30:20;43.80;;;20.00;;
76550;SDS011;68768;53.156;18.164;2024-02-15T09:32:47;38.00;;;20.20;;
76550;SDS011;68768;53.156;18.164;2024-02-15T09:35:14;39.40;;;19.20;;
76550;SDS011;68768;53.156;18.164;2024-02-15T09:37:43;38.80;;;18.70;;
76550;SDS011;68768;53.156;18.164;2024-02-15T09:40:11;40.60;;;19.40;;
76550;SDS011;68768;53.156;18.164;2024-02-15T09:42:39;39.40;;;19.10;;
76550;SDS011;68768;53.156;18.164;2024-02-15T09:45:07;41.90;;;21.60;;
76550;SDS011;68768;53.156;18.164;2024-02-15T09:47:39;40.70;;;17.70;;
76550;SDS011;68768;53.156;18.164;2024-02-15T09:50:07;34.40;;;18.50;;
76550;SDS011;68768;53.156;18.164;2024-02-15T09:52:43;37.10;;;19.00;;
76550;SDS011;68768;53.156;18.164;2024-02-15T09:55:23;38.40;;;18.40;;
76550;SDS011;68768;53.156;18.164;2024-02-15T09:57:52;36.70;;;17.30;;
76550;SDS011;68768;53.156;18.164;2024-02-15T10:00:19;35.10;;;18.70;;
76550;SDS011;68768;53.156;18.164;2024-02-15T10:02:47;38.20;;;19.60;;
76550;SDS011;68768;53.156;18.164;2024-02-15T10:05:17;38.80;;;18.70;;
76550;SDS011;68768;53.156;18.164;2024-02-15T10:07:45;41.10;;;18.90;;
76550;SDS011;68768;53.156;18.164;2024-02-15T10:12:43;35.60;;;17.60;;
76550;SDS011;68768;53.156;18.164;2024-02-15T10:15:10;39.20;;;19.80;;
76550;SDS011;68768;53.156;18.164;2024-02-15T10:17:37;34.90;;;18.90;;
76550;SDS011;68768;53.156;18.164;2024-02-15T10:20:05;38.50;;;19.20;;
76550;SDS011;68768;53.156;18.164;2024-02-15T10:22:33;42.70;;;19.20;;
76550;SDS011;68768;53.156;18.164;2024-02-15T10:25:12;36.90;;;18.90;;
76550;SDS011;68768;53.156;18.164;2024-02-15T10:27:41;44.30;;;22.10;;
76550;SDS011;68768;53.156;18.164;2024-02-15T10:30:18;42.10;;;19.80;;
76550;SDS011;68768;53.156;18.164;2024-02-15T10:32:46;46.00;;;19.90;;
76550;SDS011;68768;53.156;18.164;2024-02-15T10:35:24;36.30;;;19.00;;
76550;SDS011;68768;53.156;18.164;2024-02-15T10:37:51;40.90;;;20.50;;
76550;SDS011;68768;53.156;18.164;2024-02-15T10:40:18;46.50;;;20.30;;
76550;SDS011;68768;53.156;18.164;2024-02-15T10:42:50;38.00;;;19.30;;
76550;SDS011;68768;53.156;18.164;2024-02-15T10:45:18;42.30;;;20.30;;
76550;SDS011;68768;53.156;18.164;2024-02-15T10:47:45;38.90;;;20.30;;
76550;SDS011;68768;53.156;18.164;2024-02-15T10:50:15;42.30;;;21.50;;
76550;SDS011;68768;53.156;18.164;2024-02-15T10:52:55;40.40;;;20.50;;
76550;SDS011;68768;53.156;18.164;2024-02-15T10:55:38;40.60;;;21.10;;
76550;SDS011;68768;53.156;18.164;2024-02-15T10:58:07;38.10;;;18.70;;
76550;SDS011;68768;53.156;18.164;2024-02-15T11:00:34;39.80;;;19.80;;
76550;SDS011;68768;53.156;18.164;2024-02-15T11:03:04;42.10;;;20.50;;
76550;SDS011;68768;53.156;18.164;2024-02-15T11:05:34;36.50;;;18.80;;
76550;SDS011;68768;53.156;18.164;2024-02-15T11:08:07;40.40;;;19.30;;
76550;SDS011;68768;53.156;18.164;2024-02-15T11:10:35;39.60;;;19.00;;
76550;SDS011;68768;53.156;18.164;2024-02-15T11:13:03;36.00;;;18.70;;
76550;SDS011;68768;53.156;18.164;2024-02-15T11:15:46;43.90;;;19.00;;
76550;SDS011;68768;53.156;18.164;2024-02-15T11:21:18;37.30;;;19.00;;
76550;SDS011;68768;53.156;18.164;2024-02-15T11:23:45;38.10;;;19.30;;
76550;SDS011;68768;53.156;18.164;2024-02-15T11:35:27;33.90;;;16.30;;
76550;SDS011;68768;53.156;18.164;2024-02-15T11:37:58;35.10;;;18.00;;
76550;SDS011;68768;53.156;18.164;2024-02-15T11:41:13;30.30;;;16.70;;
76550;SDS011;68768;53.156;18.164;2024-02-15T11:46:12;36.30;;;17.80;;
76550;SDS011;68768;53.156;18.164;2024-02-15T11:48:47;30.80;;;16.30;;
76550;SDS011;68768;53.156;18.164;2024-02-15T11:51:34;32.40;;;16.90;;
76550;SDS011;68768;53.156;18.164;2024-02-15T11:54:10;33.40;;;18.00;;
76550;SDS011;68768;53.156;18.164;2024-02-15T11:59:13;29.20;;;16.60;;
76550;SDS011;68768;53.156;18.164;2024-02-15T12:01:56;35.60;;;18.30;;
76550;SDS011;68768;53.156;18.164;2024-02-15T12:04:42;33.30;;;17.40;;
76550;SDS011;68768;53.156;18.164;2024-02-15T12:07:28;34.90;;;18.10;;
76550;SDS011;68768;53.156;18.164;2024-02-15T12:10:17;33.70;;;19.10;;
76550;SDS011;68768;53.156;18.164;2024-02-15T12:13:03;35.20;;;18.70;;
76550;SDS011;68768;53.156;18.164;2024-02-15T12:15:59;35.50;;;20.20;;
76550;SDS011;68768;53.156;18.164;2024-02-15T12:18:45;37.80;;;20.10;;
76550;SDS011;68768;53.156;18.164;2024-02-15T12:21:18;40.10;;;21.20;;
76550;SDS011;68768;53.156;18.164;2024-02-15T12:23:51;43.50;;;23.20;;
76550;SDS011;68768;53.156;18.164;2024-02-15T12:26:19;46.90;;;24.60;;
76550;SDS011;68768;53.156;18.164;2024-02-15T12:28:50;42.10;;;22.20;;
76550;SDS011;68768;53.156;18.164;2024-02-15T12:31:21;41.60;;;22.90;;
76550;SDS011;68768;53.156;18.164;2024-02-15T12:34:02;46.20;;;24.00;;
76550;SDS011;68768;53.156;18.164;2024-02-15T12:36:35;40.40;;;22.90;;
76550;SDS011;68768;53.156;18.164;2024-02-15T12:39:06;40.50;;;23.00;;
76550;SDS011;68768;53.156;18.164;2024-02-15T12:41:47;36.20;;;20.90;;
76550;SDS011;68768;53.156;18.164;2024-02-15T12:44:19;44.70;;;22.70;;
76550;SDS011;68768;53.156;18.164;2024-02-15T12:46:47;41.20;;;23.70;;
76550;SDS011;68768;53.156;18.164;2024-02-15T12:51:51;37.30;;;21.40;;
76550;SDS011;68768;53.156;18.164;2024-02-15T12:54:22;38.40;;;21.60;;
76550;SDS011;68768;53.156;18.164;2024-02-15T12:56:50;39.10;;;22.70;;
76550;SDS011;68768;53.156;18.164;2024-02-15T12:59:20;45.90;;;23.40;;
76550;SDS011;68768;53.156;18.164;2024-02-15T13:01:47;41.00;;;22.70;;
76550;SDS011;68768;53.156;18.164;2024-02-15T13:04:23;42.70;;;22.90;;
76550;SDS011;68768;53.156;18.164;2024-02-15T13:06:54;38.10;;;21.30;;
76550;SDS011;68768;53.156;18.164;2024-02-15T13:09:21;41.50;;;22.90;;
76550;SDS011;68768;53.156;18.164;2024-02-15T13:11:49;37.30;;;21.80;;
76550;SDS011;68768;53.156;18.164;2024-02-15T13:14:16;46.50;;;23.50;;
76550;SDS011;68768;53.156;18.164;2024-02-15T13:16:43;41.40;;;21.90;;
76550;SDS011;68768;53.156;18.164;2024-02-15T13:19:13;44.30;;;22.40;;
76550;SDS011;68768;53.156;18.164;2024-02-15T13:21:41;61.40;;;31.10;;
76550;SDS011;68768;53.156;18.164;2024-02-15T13:24:08;46.40;;;23.50;;
76550;SDS011;68768;53.156;18.164;2024-02-15T13:26:38;52.70;;;23.80;;
76550;SDS011;68768;53.156;18.164;2024-02-15T13:29:06;42.90;;;21.90;;
76550;SDS011;68768;53.156;18.164;2024-02-15T13:31:33;48.20;;;24.50;;
76550;SDS011;68768;53.156;18.164;2024-02-15T13:34:01;45.90;;;22.00;;
76550;SDS011;68768;53.156;18.164;2024-02-15T13:36:29;42.30;;;22.70;;
76550;SDS011;68768;53.156;18.164;2024-02-15T13:38:57;40.20;;;21.20;;
76550;SDS011;68768;53.156;18.164;2024-02-15T13:41:24;42.90;;;22.30;;
76550;SDS011;68768;53.156;18.164;2024-02-15T13:43:50;47.00;;;23.50;;
76550;SDS011;68768;53.156;18.164;2024-02-15T13:46:17;43.50;;;21.80;;
76550;SDS011;68768;53.156;18.164;2024-02-15T13:48:46;40.10;;;22.10;;
76550;SDS011;68768;53.156;18.164;2024-02-15T13:51:13;38.80;;;20.10;;
76550;SDS011;68768;53.156;18.164;2024-02-15T13:53:40;40.50;;;21.00;;
76550;SDS011;68768;53.156;18.164;2024-02-15T13:56:09;40.80;;;20.90;;
76550;SDS011;68768;53.156;18.164;2024-02-15T13:58:37;38.50;;;21.30;;
76550;SDS011;68768;53.156;18.164;2024-02-15T14:01:04;41.60;;;22.70;;
76550;SDS011;68768;53.156;18.164;2024-02-15T14:03:31;39.60;;;21.20;;
76550;SDS011;68768;53.156;18.164;2024-02-15T14:06:00;40.40;;;21.80;;
76550;SDS011;68768;53.156;18.164;2024-02-15T14:08:27;37.00;;;20.10;;
76550;SDS011;68768;53.156;18.164;2024-02-15T14:10:53;37.10;;;20.00;;
76550;SDS011;68768;53.156;18.164;2024-02-15T14:13:20;34.80;;;18.60;;
76550;SDS011;68768;53.156;18.164;2024-02-15T14:15:49;36.40;;;19.50;;
76550;SDS011;68768;53.156;18.164;2024-02-15T14:18:16;35.20;;;19.00;;
76550;SDS011;68768;53.156;18.164;2024-02-15T14:20:46;35.30;;;18.00;;
76550;SDS011;68768;53.156;18.164;2024-02-15T14:23:17;32.60;;;17.60;;
76550;SDS011;68768;53.156;18.164;2024-02-15T14:25:44;33.80;;;18.10;;
76550;SDS011;68768;53.156;18.164;2024-02-15T14:28:11;33.60;;;18.50;;
76550;SDS011;68768;53.156;18.164;2024-02-15T14:30:39;35.00;;;19.10;;
76550;SDS011;68768;53.156;18.164;2024-02-15T14:33:25;37.90;;;19.10;;
76550;SDS011;68768;53.156;18.164;2024-02-15T14:35:52;36.10;;;17.20;;
76550;SDS011;68768;53.156;18.164;2024-02-15T14:38:22;30.10;;;17.00;;
76550;SDS011;68768;53.156;18.164;2024-02-15T14:40:50;38.60;;;17.80;;
76550;SDS011;68768;53.156;18.164;2024-02-15T14:43:19;35.50;;;18.40;;